Time,TemperatureF,DewpointF,PressureIn,WindDirection,WindDirectionDegrees,WindSpeedMPH,WindSpeedGustMPH,Humidity,HourlyPrecipIn,Conditions,Clouds,dailyrainin,SoftwareType,DateUTC
2013-05-14 00:10:00,45.4,37.0,30.07,North,11,0.0,0.0,72,0.00,,,0.00,weatherlink.com 1.10,2013-05-14 07:10:00,
2013-05-14 00:25:00,44.1,37.0,30.07,ESE,114,0.0,4.0,77,0.00,,,0.00,weatherlink.com 1.10,2013-05-14 07:25:00,
2013-05-14 00:39:00,44.0,38.0,30.07,ESE,114,0.0,0.0,80,0.00,,,0.00,weatherlink.com 1.10,2013-05-14 07:39:00,
2013-05-14 00:54:00,43.9,38.0,30.07,ESE,114,0.0,0.0,80,0.00,,,0.00,weatherlink.com 1.10,2013-05-14 07:54:00,
2013-05-14 01:10:00,43.6,38.0,30.08,ESE,114,0.0,0.0,81,0.00,,,0.00,weatherlink.com 1.10,2013-05-14 08:10:00,
2013-05-14 01:25:00,43.7,38.0,30.08,ESE,114,0.0,0.0,81,0.00,,,0.00,weatherlink.com 1.10,2013-05-14 08:25:00,
2013-05-14 01:40:00,43.4,38.0,30.08,ESE,114,0.0,0.0,82,0.00,,,0.00,weatherlink.com 1.10,2013-05-14 08:40:00,
2013-05-14 01:56:00,43.2,38.0,30.08,ESE,114,0.0,0.0,82,0.00,,,0.00,weatherlink.com 1.10,2013-05-14 08:56:00,
2013-05-14 02:11:00,42.7,38.0,30.07,ESE,114,0.0,0.0,82,0.00,,,0.00,weatherlink.com 1.10,2013-05-14 09:11:00,
2013-05-14 02:25:00,42.4,38.0,30.07,ESE,114,0.0,0.0,83,0.00,,,0.00,weatherlink.com 1.10,2013-05-14 09:25:00,
2013-05-14 02:40:00,42.6,38.0,30.08,ESE,114,0.0,0.0,83,0.00,,,0.00,weatherlink.com 1.10,2013-05-14 09:40:00,
2013-05-14 02:56:00,42.9,38.0,30.08,ESE,103,0.0,1.0,82,0.00,,,0.00,weatherlink.com 1.10,2013-05-14 09:56:00,
2013-05-14 03:11:00,43.7,38.0,30.08,East,101,0.0,0.0,80,0.00,,,0.00,weatherlink.com 1.10,2013-05-14 10:11:00,
2013-05-14 03:27:00,43.4,37.0,30.09,East,101,0.0,0.0,79,0.00,,,0.00,weatherlink.com 1.10,2013-05-14 10:27:00,
2013-05-14 03:41:00,43.5,37.0,30.09,East,96,0.0,3.0,79,0.00,,,0.00,weatherlink.com 1.10,2013-05-14 10:41:00,
2013-05-14 03:57:00,44.3,38.0,30.08,East,90,0.0,2.0,77,0.00,,,0.00,weatherlink.com 1.10,2013-05-14 10:57:00,
2013-05-14 04:12:00,43.2,37.0,30.08,East,88,0.0,0.0,80,0.00,,,0.00,weatherlink.com 1.10,2013-05-14 11:12:00,
2013-05-14 04:27:00,42.0,37.0,30.07,East,88,0.0,0.0,81,0.00,,,0.00,weatherlink.com 1.10,2013-05-14 11:27:00,
2013-05-14 04:41:00,41.5,36.0,30.07,East,89,0.0,0.0,81,0.00,,,0.00,weatherlink.com 1.10,2013-05-14 11:41:00,
2013-05-14 04:57:00,41.2,36.0,30.07,East,89,0.0,0.0,81,0.00,,,0.00,weatherlink.com 1.10,2013-05-14 11:57:00,
2013-05-14 05:13:00,41.3,36.0,30.07,East,88,0.0,0.0,80,0.00,,,0.00,weatherlink.com 1.10,2013-05-14 12:13:00,
2013-05-14 05:28:00,40.3,35.0,30.08,East,88,0.0,0.0,82,0.00,,,0.00,weatherlink.com 1.10,2013-05-14 12:28:00,
2013-05-14 05:43:00,40.2,35.0,30.08,East,89,0.0,0.0,83,0.00,,,0.00,weatherlink.com 1.10,2013-05-14 12:43:00,
2013-05-14 05:58:00,40.1,35.0,30.08,East,89,0.0,0.0,83,0.00,,,0.00,weatherlink.com 1.10,2013-05-14 12:58:00,
2013-05-14 06:13:00,40.4,36.0,30.09,East,89,0.0,0.0,83,0.00,,,0.00,weatherlink.com 1.10,2013-05-14 13:13:00,
2013-05-14 06:28:00,41.1,37.0,30.09,East,88,0.0,0.0,84,0.00,,,0.00,weatherlink.com 1.10,2013-05-14 13:28:00,
2013-05-14 06:45:00,42.4,38.0,30.09,East,88,0.0,0.0,85,0.00,,,0.00,weatherlink.com 1.10,2013-05-14 13:45:00,
2013-05-14 07:00:00,43.6,38.0,30.09,East,89,0.0,1.0,82,0.00,,,0.00,weatherlink.com 1.10,2013-05-14 14:00:00,
2013-05-14 07:15:00,44.8,38.0,30.10,East,89,0.0,0.0,78,0.00,,,0.00,weatherlink.com 1.10,2013-05-14 14:15:00,
2013-05-14 07:30:00,45.5,39.0,30.10,East,89,0.0,0.0,77,0.00,,,0.00,weatherlink.com 1.10,2013-05-14 14:30:00,
2013-05-14 07:45:00,46.1,39.0,30.10,East,88,0.0,0.0,75,0.00,,,0.00,weatherlink.com 1.10,2013-05-14 14:45:00,
2013-05-14 08:00:00,47.8,40.0,30.10,East,89,0.0,0.0,74,0.00,,,0.00,weatherlink.com 1.10,2013-05-14 15:00:00,
2013-05-14 08:15:00,49.9,40.0,30.09,East,89,0.0,1.0,69,0.00,,,0.00,weatherlink.com 1.10,2013-05-14 15:15:00,
2013-05-14 08:30:00,50.8,39.0,30.09,East,88,0.0,0.0,65,0.00,,,0.00,weatherlink.com 1.10,2013-05-14 15:30:00,
2013-05-14 08:45:00,52.7,40.0,30.09,East,88,0.0,0.0,62,0.00,,,0.00,weatherlink.com 1.10,2013-05-14 15:45:00,
2013-05-14 08:59:00,52.6,41.0,30.09,East,89,2.0,5.0,64,0.00,,,0.00,weatherlink.com 1.10,2013-05-14 15:59:00,
2013-05-14 09:14:00,53.2,40.0,30.09,East,90,0.0,5.0,61,0.00,,,0.00,weatherlink.com 1.10,2013-05-14 16:14:00,
2013-05-14 09:29:00,54.0,40.0,30.08,East,96,0.0,2.0,59,0.00,,,0.00,weatherlink.com 1.10,2013-05-14 16:29:00,
2013-05-14 09:44:00,55.5,40.0,30.08,East,98,0.0,1.0,57,0.00,,,0.00,weatherlink.com 1.10,2013-05-14 16:44:00,
2013-05-14 10:00:00,56.6,39.0,30.08,East,98,0.0,3.0,53,0.00,,,0.00,weatherlink.com 1.10,2013-05-14 17:00:00,
2013-05-14 10:15:00,56.0,39.0,30.08,SE,134,0.0,3.0,53,0.00,,,0.00,weatherlink.com 1.10,2013-05-14 17:15:00,
2013-05-14 10:30:00,58.5,41.0,30.07,ESE,121,0.0,2.0,52,0.00,,,0.00,weatherlink.com 1.10,2013-05-14 17:30:00,
2013-05-14 10:45:00,57.8,39.0,30.07,East,80,0.0,2.0,50,0.00,,,0.00,weatherlink.com 1.10,2013-05-14 17:45:00,
2013-05-14 11:00:00,59.0,38.0,30.07,NNE,18,0.0,5.0,45,0.00,,,0.00,weatherlink.com 1.10,2013-05-14 18:00:00,
2013-05-14 11:15:00,59.5,37.0,30.07,NW,313,6.0,7.0,43,0.00,,,0.00,weatherlink.com 1.10,2013-05-14 18:15:00,
2013-05-14 11:31:00,58.2,36.0,30.07,NW,309,2.0,6.0,43,0.00,,,0.00,weatherlink.com 1.10,2013-05-14 18:31:00,
2013-05-14 11:46:00,60.4,36.0,30.07,East,90,0.0,6.0,41,0.00,,,0.00,weatherlink.com 1.10,2013-05-14 18:46:00,
2013-05-14 12:01:00,62.6,34.0,30.06,NNW,339,0.0,3.0,34,0.00,,,0.00,weatherlink.com 1.10,2013-05-14 19:01:00,
2013-05-14 12:17:00,62.1,32.0,30.05,NW,304,0.0,3.0,32,0.00,,,0.00,weatherlink.com 1.10,2013-05-14 19:17:00,
2013-05-14 12:32:00,64.8,32.0,30.05,East,86,0.0,6.0,29,0.00,,,0.00,weatherlink.com 1.10,2013-05-14 19:32:00,
2013-05-14 12:47:00,66.1,31.0,30.04,NE,36,2.0,6.0,27,0.00,,,0.00,weatherlink.com 1.10,2013-05-14 19:47:00,
2013-05-14 13:02:00,66.4,32.0,30.04,NNE,26,0.0,7.0,28,0.00,,,0.00,weatherlink.com 1.10,2013-05-14 20:02:00,
2013-05-14 13:17:00,62.9,32.0,30.03,WNW,298,0.0,8.0,32,0.00,,,0.00,weatherlink.com 1.10,2013-05-14 20:17:00,
2013-05-14 13:32:00,66.4,34.0,30.02,ESE,105,0.0,5.0,30,0.00,,,0.00,weatherlink.com 1.10,2013-05-14 20:32:00,
2013-05-14 13:48:00,68.6,36.0,30.02,ENE,76,0.0,4.0,30,0.00,,,0.00,weatherlink.com 1.10,2013-05-14 20:48:00,
2013-05-14 14:02:00,69.6,38.0,30.01,NNE,14,3.0,9.0,32,0.00,,,0.00,weatherlink.com 1.10,2013-05-14 21:02:00,
2013-05-14 14:17:00,69.2,37.0,30.01,NNE,24,0.0,10.0,31,0.00,,,0.00,weatherlink.com 1.10,2013-05-14 21:17:00,
2013-05-14 14:35:00,68.1,37.0,30.00,NNE,22,0.0,6.0,32,0.00,,,0.00,weatherlink.com 1.10,2013-05-14 21:35:00,
2013-05-14 14:50:00,66.8,37.0,30.00,SW,223,0.0,8.0,33,0.00,,,0.00,weatherlink.com 1.10,2013-05-14 21:50:00,
2013-05-14 15:05:00,70.1,38.0,29.99,NNE,16,0.0,6.0,31,0.00,,,0.00,weatherlink.com 1.10,2013-05-14 22:05:00,
2013-05-14 15:18:00,69.0,39.0,29.98,North,360,3.0,4.0,34,0.00,,,0.00,weatherlink.com 1.10,2013-05-14 22:18:00,
2013-05-14 15:35:00,70.2,37.0,29.98,NNE,22,0.0,8.0,30,0.00,,,0.00,weatherlink.com 1.10,2013-05-14 22:35:00,
2013-05-14 15:50:00,67.9,41.0,29.97,SW,218,0.0,7.0,37,0.00,,,0.00,weatherlink.com 1.10,2013-05-14 22:50:00,
2013-05-14 16:05:00,70.0,39.0,29.97,ESE,118,0.0,3.0,32,0.00,,,0.00,weatherlink.com 1.10,2013-05-14 23:05:00,
2013-05-14 16:20:00,71.3,41.0,29.97,ESE,118,0.0,0.0,33,0.00,,,0.00,weatherlink.com 1.10,2013-05-14 23:20:00,
2013-05-14 16:35:00,69.7,38.0,29.97,North,355,1.0,5.0,31,0.00,,,0.00,weatherlink.com 1.10,2013-05-14 23:35:00,
2013-05-14 16:50:00,71.6,40.0,29.97,East,92,0.0,3.0,32,0.00,,,0.00,weatherlink.com 1.10,2013-05-14 23:50:00,
2013-05-14 17:05:00,73.5,42.0,29.96,East,80,0.0,3.0,32,0.00,,,0.00,weatherlink.com 1.10,2013-05-15 00:05:00,
2013-05-14 17:20:00,72.6,42.0,29.96,ESE,112,3.0,9.0,33,0.00,,,0.00,weatherlink.com 1.10,2013-05-15 00:20:00,
2013-05-14 17:35:00,70.7,41.0,29.96,ESE,102,5.0,9.0,34,0.00,,,0.00,weatherlink.com 1.10,2013-05-15 00:35:00,
2013-05-14 17:50:00,71.9,37.0,29.96,East,96,0.0,5.0,28,0.00,,,0.00,weatherlink.com 1.10,2013-05-15 00:50:00,
2013-05-14 18:05:00,72.2,38.0,29.95,NNE,15,0.0,5.0,29,0.00,,,0.00,weatherlink.com 1.10,2013-05-15 01:05:00,
2013-05-14 18:20:00,70.1,39.0,29.95,NE,42,7.0,16.0,32,0.00,,,0.00,weatherlink.com 1.10,2013-05-15 01:20:00,
2013-05-14 18:35:00,68.8,38.0,29.95,NNE,25,9.0,11.0,32,0.00,,,0.00,weatherlink.com 1.10,2013-05-15 01:35:00,
2013-05-14 18:51:00,68.5,38.0,29.95,North,5,4.0,8.0,33,0.00,,,0.00,weatherlink.com 1.10,2013-05-15 01:51:00,
2013-05-14 19:06:00,67.9,41.0,29.95,NNE,24,5.0,8.0,37,0.00,,,0.00,weatherlink.com 1.10,2013-05-15 02:06:00,
2013-05-14 19:21:00,67.3,41.0,29.95,North,11,0.0,7.0,39,0.00,,,0.00,weatherlink.com 1.10,2013-05-15 02:21:00,
2013-05-14 19:36:00,66.2,39.0,29.96,NNE,15,4.0,9.0,37,0.00,,,0.00,weatherlink.com 1.10,2013-05-15 02:36:00,
2013-05-14 19:51:00,65.0,41.0,29.96,North,9,1.0,7.0,41,0.00,,,0.00,weatherlink.com 1.10,2013-05-15 02:51:00,
2013-05-14 20:06:00,62.7,40.0,29.96,North,11,0.0,2.0,43,0.00,,,0.00,weatherlink.com 1.10,2013-05-15 03:06:00,
2013-05-14 20:21:00,59.2,40.0,29.97,North,349,0.0,2.0,50,0.00,,,0.00,weatherlink.com 1.10,2013-05-15 03:21:00,
2013-05-14 20:36:00,55.9,39.0,29.97,NNW,333,1.0,4.0,54,0.00,,,0.00,weatherlink.com 1.10,2013-05-15 03:36:00,
2013-05-14 20:52:00,55.1,39.0,29.98,NNW,342,0.0,0.0,54,0.00,,,0.00,weatherlink.com 1.10,2013-05-15 03:52:00,
2013-05-14 21:07:00,53.5,39.0,29.99,North,5,0.0,3.0,59,0.00,,,0.00,weatherlink.com 1.10,2013-05-15 04:07:00,
2013-05-14 21:22:00,52.4,39.0,30.00,North,5,0.0,0.0,61,0.00,,,0.00,weatherlink.com 1.10,2013-05-15 04:22:00,
2013-05-14 21:37:00,51.8,36.0,30.00,North,5,0.0,0.0,56,0.00,,,0.00,weatherlink.com 1.10,2013-05-15 04:37:00,
2013-05-14 21:52:00,51.6,37.0,30.01,North,5,0.0,0.0,58,0.00,,,0.00,weatherlink.com 1.10,2013-05-15 04:52:00,
2013-05-14 22:08:00,51.5,37.0,30.01,North,5,0.0,0.0,58,0.00,,,0.00,weatherlink.com 1.10,2013-05-15 05:08:00,
2013-05-14 22:22:00,50.5,37.0,30.01,North,360,0.0,0.0,61,0.00,,,0.00,weatherlink.com 1.10,2013-05-15 05:22:00,
2013-05-14 22:37:00,49.2,37.0,30.01,North,360,0.0,0.0,62,0.00,,,0.00,weatherlink.com 1.10,2013-05-15 05:37:00,
2013-05-14 22:53:00,48.7,35.0,30.01,North,360,0.0,0.0,59,0.00,,,0.00,weatherlink.com 1.10,2013-05-15 05:53:00,
2013-05-14 23:08:00,49.1,35.0,30.01,North,5,0.0,1.0,58,0.00,,,0.00,weatherlink.com 1.10,2013-05-15 06:08:00,
2013-05-14 23:23:00,49.5,37.0,30.01,North,5,0.0,0.0,62,0.00,,,0.00,weatherlink.com 1.10,2013-05-15 06:23:00,
2013-05-14 23:38:00,48.6,38.0,30.01,North,360,0.0,0.0,66,0.00,,,0.00,weatherlink.com 1.10,2013-05-15 06:38:00,
2013-05-14 23:53:00,47.9,38.0,30.01,North,5,0.0,0.0,68,0.00,,,0.00,weatherlink.com 1.10,2013-05-15 06:53:00,